createdAt,value
2019-01-18T00:05:36.869Z,57.30
2019-01-18T00:12:21.057Z,57.00
2019-01-18T00:19:05.262Z,56.40
2019-01-18T00:25:49.453Z,55.80
2019-01-18T00:32:33.633Z,56.00
2019-01-18T00:39:17.842Z,55.70
2019-01-18T00:46:15.818Z,55.30
2019-01-18T00:53:00.009Z,55.40
2019-01-18T00:59:44.201Z,55.60
2019-01-18T01:06:28.382Z,55.90
2019-01-18T01:13:12.562Z,55.40
2019-01-18T01:19:56.738Z,55.10
2019-01-18T01:26:40.981Z,54.10
2019-01-18T01:33:25.170Z,54.40
2019-01-18T01:40:12.261Z,54.20
2019-01-18T01:46:56.517Z,53.70
2019-01-18T01:53:40.713Z,52.80
2019-01-18T02:00:26.582Z,52.20
2019-01-18T02:07:10.768Z,51.70
2019-01-18T02:13:54.949Z,51.30
2019-01-18T02:20:39.134Z,51.20
2019-01-18T02:27:23.337Z,51.10
2019-01-18T02:34:07.532Z,51.20
2019-01-18T02:40:51.747Z,51.20
2019-01-18T02:47:35.927Z,51.40
2019-01-18T02:54:20.113Z,51.40
2019-01-18T03:01:04.349Z,50.70
2019-01-18T03:07:48.583Z,50.60
2019-01-18T03:14:32.798Z,50.20
2019-01-18T03:21:16.973Z,49.70
2019-01-18T03:28:01.143Z,49.80
2019-01-18T03:34:45.302Z,50.80
2019-01-18T03:41:29.509Z,51.70
2019-01-18T03:48:13.683Z,52.40
2019-01-18T03:54:57.846Z,52.70
2019-01-18T04:01:42.014Z,53.00
2019-01-18T04:08:26.181Z,53.10
2019-01-18T04:15:12.210Z,53.20
2019-01-18T04:21:56.412Z,53.10
2019-01-18T04:28:40.573Z,53.20
2019-01-18T04:35:24.744Z,53.00
2019-01-18T04:42:08.942Z,52.70
2019-01-18T04:48:53.113Z,52.50
2019-01-18T04:55:37.304Z,52.20
2019-01-18T05:02:21.463Z,52.20
2019-01-18T05:09:07.138Z,52.10
2019-01-18T05:15:51.302Z,52.30
2019-01-18T05:22:35.461Z,52.00
2019-01-18T05:29:19.630Z,52.10
2019-01-18T05:36:03.841Z,52.50
2019-01-18T05:42:48.108Z,52.80
2019-01-18T05:49:32.273Z,52.70
2019-01-18T05:56:16.461Z,53.20
2019-01-18T06:03:00.637Z,53.90
2019-01-18T06:09:44.813Z,53.70
2019-01-18T06:16:28.993Z,54.00
2019-01-18T06:23:13.154Z,54.00
2019-01-18T06:29:57.377Z,54.20
2019-01-18T06:36:41.549Z,54.80
2019-01-18T06:43:25.725Z,55.30
2019-01-18T06:50:12.251Z,61.10
2019-01-18T06:56:56.417Z,63.70
2019-01-18T07:03:40.585Z,64.90
2019-01-18T07:10:24.821Z,65.40
2019-01-18T07:17:09.026Z,66.00
2019-01-18T07:23:53.213Z,66.30
2019-01-18T07:30:40.029Z,65.10
2019-01-18T07:37:24.210Z,65.40
2019-01-18T07:44:08.385Z,64.40
2019-01-18T07:50:52.565Z,63.30
2019-01-18T07:57:36.733Z,62.70
2019-01-18T08:04:20.921Z,62.00
2019-01-18T08:11:05.093Z,61.30
2019-01-18T08:17:49.417Z,60.50
2019-01-18T08:24:33.577Z,59.90
2019-01-18T08:31:17.747Z,58.90
2019-01-18T08:38:01.955Z,58.80
2019-01-18T08:44:46.158Z,59.50
2019-01-18T08:51:30.339Z,58.70
2019-01-18T08:58:14.506Z,58.60
2019-01-18T09:04:58.669Z,57.70
2019-01-18T09:11:42.865Z,57.40
2019-01-18T09:18:27.058Z,57.00
2019-01-18T09:25:11.221Z,55.40
2019-01-18T09:31:55.399Z,54.40
2019-01-18T09:38:39.563Z,55.10
2019-01-18T09:45:23.722Z,54.40
2019-01-18T09:52:07.884Z,54.80
2019-01-18T09:58:53.669Z,54.70
2019-01-18T10:05:37.850Z,53.80
2019-01-18T10:12:22.009Z,53.30
2019-01-18T10:19:06.197Z,52.90
2019-01-18T10:25:50.377Z,51.30
2019-01-18T10:32:34.556Z,52.60
2019-01-18T10:39:18.739Z,51.70
2019-01-18T10:46:02.925Z,50.90
2019-01-18T10:52:47.229Z,50.60
2019-01-18T10:59:31.397Z,49.90
2019-01-18T11:06:15.565Z,49.00
2019-01-18T11:12:59.757Z,47.70
2019-01-18T11:19:43.981Z,45.90
2019-01-18T11:26:28.153Z,44.40
2019-01-18T11:33:13.638Z,43.20
2019-01-18T11:39:57.817Z,42.80
2019-01-18T11:46:41.988Z,44.30
2019-01-18T11:53:26.178Z,43.30
2019-01-18T12:00:14.402Z,44.20
2019-01-18T12:06:58.591Z,45.60
2019-01-18T12:13:42.781Z,46.20
2019-01-18T12:20:32.257Z,45.80
2019-01-18T12:27:16.437Z,44.60
2019-01-18T12:34:00.650Z,44.90
2019-01-18T12:40:44.874Z,44.20
2019-01-18T12:47:29.042Z,43.10
2019-01-18T12:54:13.210Z,43.70
2019-01-18T13:00:57.401Z,43.00
2019-01-18T13:07:41.570Z,45.50
2019-01-18T13:14:25.734Z,46.50
2019-01-18T13:21:09.909Z,47.60
2019-01-18T13:27:54.084Z,48.20
2019-01-18T13:34:38.261Z,48.20
2019-01-18T13:41:24.227Z,48.10
2019-01-18T13:48:08.393Z,48.60
2019-01-18T13:54:52.597Z,48.90
2019-01-18T14:01:36.791Z,48.40
2019-01-18T14:08:20.950Z,46.90
2019-01-18T14:15:05.757Z,46.30
2019-01-18T14:21:49.987Z,47.50
2019-01-18T14:28:34.149Z,46.80
2019-01-18T14:35:18.345Z,45.70
2019-01-18T14:42:02.530Z,47.20
2019-01-18T14:48:46.728Z,47.00
2019-01-18T14:55:30.901Z,47.60
2019-01-18T15:02:15.106Z,49.50
2019-01-18T15:08:59.266Z,50.30
2019-01-18T15:15:43.429Z,50.30
2019-01-18T15:22:27.953Z,50.50
2019-01-18T15:29:12.173Z,51.20
2019-01-18T15:35:56.406Z,51.50
2019-01-18T15:42:40.649Z,53.50
2019-01-18T15:49:24.926Z,54.60
2019-01-18T15:56:09.187Z,55.80
2019-01-18T16:02:53.383Z,55.20
2019-01-18T16:09:37.614Z,56.50
2019-01-18T16:16:38.034Z,58.50
2019-01-18T16:23:22.247Z,60.10
2019-01-18T16:30:09.305Z,60.90
2019-01-18T16:36:53.505Z,61.40
2019-01-18T16:43:40.773Z,61.80
2019-01-18T16:50:24.961Z,61.60
2019-01-18T16:57:09.159Z,62.00
2019-01-18T17:03:53.391Z,62.00
2019-01-18T17:10:40.018Z,61.10
2019-01-18T17:17:24.187Z,60.80
2019-01-18T17:24:08.390Z,61.00
2019-01-18T17:30:52.591Z,62.10
2019-01-18T17:37:39.901Z,63.30
2019-01-18T17:44:47.494Z,64.60
2019-01-18T17:51:49.397Z,62.30
2019-01-18T17:58:54.397Z,62.00
2019-01-18T18:06:01.473Z,61.70
2019-01-18T18:14:23.063Z,63.10
2019-01-18T18:21:24.434Z,64.60
2019-01-18T18:28:25.691Z,65.00
2019-01-18T18:35:39.382Z,65.50
2019-01-18T18:42:42.069Z,66.20
2019-01-18T18:49:53.681Z,64.80
2019-01-18T18:56:46.766Z,63.10
2019-01-18T19:03:41.277Z,61.30
2019-01-18T19:10:34.118Z,61.10
2019-01-18T19:18:34.373Z,61.40
2019-01-18T19:28:05.169Z,62.60
2019-01-18T19:35:01.482Z,63.70
2019-01-18T19:42:37.180Z,69.40
2019-01-18T19:50:02.425Z,70.30
2019-01-18T19:58:59.793Z,70.60
2019-01-18T20:06:09.622Z,71.50
2019-01-18T20:15:07.774Z,72.10
2019-01-18T20:22:17.198Z,73.60
2019-01-18T20:29:14.788Z,75.40
2019-01-18T20:36:11.933Z,75.70
2019-01-18T20:45:14.119Z,76.80
2019-01-18T20:52:15.405Z,77.30
2019-01-18T20:59:23.104Z,77.40
2019-01-18T21:06:17.992Z,77.50
2019-01-18T21:13:46.505Z,77.80
2019-01-18T21:21:13.238Z,77.70
2019-01-18T21:28:08.497Z,77.90
2019-01-18T21:35:04.634Z,78.00
2019-01-18T21:43:10.020Z,78.20
2019-01-18T21:50:07.033Z,79.20
2019-01-18T21:57:15.875Z,82.10
2019-01-18T22:04:12.090Z,82.80
2019-01-18T22:11:07.562Z,82.20
2019-01-18T22:18:16.065Z,82.60
2019-01-18T22:25:11.312Z,82.90
2019-01-18T22:32:07.369Z,82.70
2019-01-18T22:41:24.625Z,82.30
2019-01-18T22:48:33.390Z,82.00
2019-01-18T22:55:28.465Z,81.70
2019-01-18T23:02:28.567Z,83.20
2019-01-18T23:09:30.438Z,84.50
2019-01-18T23:17:29.783Z,84.90
2019-01-18T23:24:28.446Z,85.10
2019-01-18T23:31:21.061Z,85.90
2019-01-18T23:38:15.889Z,86.40
2019-01-18T23:45:17.242Z,86.30
2019-01-18T23:52:12.684Z,86.30
2019-01-18T23:59:15.685Z,86.20
